sensor_id;sensor_type;location;lat;lon;timestamp;temperature;humidity
418;DHT22;49;48.530;9.200;2023-11-21T00:02:20;16.00;51.00
418;DHT22;49;48.530;9.200;2023-11-21T00:04:47;16.20;52.30
418;DHT22;49;48.530;9.200;2023-11-21T00:07:15;16.30;49.70
418;DHT22;49;48.530;9.200;2023-11-21T00:09:44;16.30;46.10
418;DHT22;49;48.530;9.200;2023-11-21T00:12:11;16.40;51.10
418;DHT22;49;48.530;9.200;2023-11-21T00:14:39;16.50;49.80
418;DHT22;49;48.530;9.200;2023-11-21T00:17:06;16.50;48.60
418;DHT22;49;48.530;9.200;2023-11-21T00:19:33;16.40;47.00
418;DHT22;49;48.530;9.200;2023-11-21T00:22:00;16.20;45.60
418;DHT22;49;48.530;9.200;2023-11-21T00:24:27;16.10;48.80
418;DHT22;49;48.530;9.200;2023-11-21T00:26:55;16.20;47.80
418;DHT22;49;48.530;9.200;2023-11-21T00:29:22;16.20;50.20
418;DHT22;49;48.530;9.200;2023-11-21T00:31:49;16.30;47.30
418;DHT22;49;48.530;9.200;2023-11-21T00:34:16;16.50;49.30
418;DHT22;49;48.530;9.200;2023-11-21T00:36:43;16.50;48.20
418;DHT22;49;48.530;9.200;2023-11-21T00:39:10;16.60;47.40
418;DHT22;49;48.530;9.200;2023-11-21T00:41:37;16.50;47.60
418;DHT22;49;48.530;9.200;2023-11-21T00:44:06;16.60;46.70
418;DHT22;49;48.530;9.200;2023-11-21T00:46:33;16.70;45.00
418;DHT22;49;48.530;9.200;2023-11-21T00:49:00;16.90;46.00
418;DHT22;49;48.530;9.200;2023-11-21T00:51:29;16.80;46.90
418;DHT22;49;48.530;9.200;2023-11-21T00:53:57;16.90;46.30
418;DHT22;49;48.530;9.200;2023-11-21T00:56:24;16.90;44.60
418;DHT22;49;48.530;9.200;2023-11-21T00:58:50;16.90;42.80
418;DHT22;49;48.530;9.200;2023-11-21T01:01:19;16.80;44.00
418;DHT22;49;48.530;9.200;2023-11-21T01:03:47;16.50;41.40
418;DHT22;49;48.530;9.200;2023-11-21T01:06:14;16.50;45.30
418;DHT22;49;48.530;9.200;2023-11-21T01:08:43;16.50;42.20
418;DHT22;49;48.530;9.200;2023-11-21T01:11:10;16.40;47.60
418;DHT22;49;48.530;9.200;2023-11-21T01:13:37;16.50;46.70
418;DHT22;49;48.530;9.200;2023-11-21T01:16:06;16.60;45.00
418;DHT22;49;48.530;9.200;2023-11-21T01:18:35;16.40;44.40
418;DHT22;49;48.530;9.200;2023-11-21T01:21:02;16.30;45.30
418;DHT22;49;48.530;9.200;2023-11-21T01:23:29;16.40;45.60
418;DHT22;49;48.530;9.200;2023-11-21T01:25:57;16.70;47.40
418;DHT22;49;48.530;9.200;2023-11-21T01:28:24;16.60;44.90
418;DHT22;49;48.530;9.200;2023-11-21T01:30:52;16.60;45.30
418;DHT22;49;48.530;9.200;2023-11-21T01:33:21;16.70;46.20
418;DHT22;49;48.530;9.200;2023-11-21T01:35:51;16.50;42.00
418;DHT22;49;48.530;9.200;2023-11-21T01:38:20;16.30;41.10
418;DHT22;49;48.530;9.200;2023-11-21T01:40:47;15.90;42.20
418;DHT22;49;48.530;9.200;2023-11-21T01:43:14;15.60;46.30
418;DHT22;49;48.530;9.200;2023-11-21T01:45:42;15.70;46.90
418;DHT22;49;48.530;9.200;2023-11-21T01:48:10;15.90;45.60
418;DHT22;49;48.530;9.200;2023-11-21T01:50:38;15.80;46.80
418;DHT22;49;48.530;9.200;2023-11-21T01:53:07;15.70;46.60
418;DHT22;49;48.530;9.200;2023-11-21T01:55:34;15.70;48.10
418;DHT22;49;48.530;9.200;2023-11-21T01:58:02;15.70;43.20
418;DHT22;49;48.530;9.200;2023-11-21T02:00:29;15.50;42.60
418;DHT22;49;48.530;9.200;2023-11-21T02:02:56;14.90;47.90
418;DHT22;49;48.530;9.200;2023-11-21T02:05:25;14.50;49.30
418;DHT22;49;48.530;9.200;2023-11-21T02:07:52;14.30;50.50
418;DHT22;49;48.530;9.200;2023-11-21T02:10:21;14.30;49.20
418;DHT22;49;48.530;9.200;2023-11-21T02:12:49;14.30;52.10
418;DHT22;49;48.530;9.200;2023-11-21T02:15:23;14.30;52.10
418;DHT22;49;48.530;9.200;2023-11-21T02:17:54;14.10;53.30
418;DHT22;49;48.530;9.200;2023-11-21T02:20:24;14.30;55.80
418;DHT22;49;48.530;9.200;2023-11-21T02:22:54;14.30;47.50
418;DHT22;49;48.530;9.200;2023-11-21T02:25:25;14.00;51.30
418;DHT22;49;48.530;9.200;2023-11-21T02:27:55;14.20;54.80
418;DHT22;49;48.530;9.200;2023-11-21T02:30:23;14.40;50.00
418;DHT22;49;48.530;9.200;2023-11-21T02:32:51;14.40;53.80
418;DHT22;49;48.530;9.200;2023-11-21T02:35:19;14.40;51.50
418;DHT22;49;48.530;9.200;2023-11-21T02:37:46;14.50;52.70
418;DHT22;49;48.530;9.200;2023-11-21T02:40:15;14.80;52.00
418;DHT22;49;48.530;9.200;2023-11-21T02:42:44;14.90;48.70
418;DHT22;49;48.530;9.200;2023-11-21T02:45:11;15.00;48.40
418;DHT22;49;48.530;9.200;2023-11-21T02:47:38;15.00;51.10
418;DHT22;49;48.530;9.200;2023-11-21T02:50:06;14.60;44.70
418;DHT22;49;48.530;9.200;2023-11-21T02:52:34;14.90;55.00
418;DHT22;49;48.530;9.200;2023-11-21T02:55:01;14.90;50.80
418;DHT22;49;48.530;9.200;2023-11-21T02:57:30;14.90;48.20
418;DHT22;49;48.530;9.200;2023-11-21T02:59:57;14.80;47.40
418;DHT22;49;48.530;9.200;2023-11-21T03:02:24;14.50;45.80
418;DHT22;49;48.530;9.200;2023-11-21T03:04:51;14.30;48.60
418;DHT22;49;48.530;9.200;2023-11-21T03:07:18;14.30;50.80
418;DHT22;49;48.530;9.200;2023-11-21T03:09:45;14.00;53.90
418;DHT22;49;48.530;9.200;2023-11-21T03:12:12;14.00;50.70
418;DHT22;49;48.530;9.200;2023-11-21T03:14:41;14.20;55.80
418;DHT22;49;48.530;9.200;2023-11-21T03:17:08;14.60;51.90
418;DHT22;49;48.530;9.200;2023-11-21T03:19:35;14.80;53.90
418;DHT22;49;48.530;9.200;2023-11-21T03:22:02;15.00;52.00
418;DHT22;49;48.530;9.200;2023-11-21T03:24:29;15.20;50.90
418;DHT22;49;48.530;9.200;2023-11-21T03:26:56;15.40;54.20
418;DHT22;49;48.530;9.200;2023-11-21T03:29:23;15.50;50.30
418;DHT22;49;48.530;9.200;2023-11-21T03:31:51;15.50;43.10
418;DHT22;49;48.530;9.200;2023-11-21T03:34:23;15.60;47.40
418;DHT22;49;48.530;9.200;2023-11-21T03:36:51;15.60;43.30
418;DHT22;49;48.530;9.200;2023-11-21T03:39:19;15.40;44.80
418;DHT22;49;48.530;9.200;2023-11-21T03:41:46;15.40;42.90
418;DHT22;49;48.530;9.200;2023-11-21T03:44:13;15.30;41.60
418;DHT22;49;48.530;9.200;2023-11-21T03:46:40;15.30;43.10
418;DHT22;49;48.530;9.200;2023-11-21T03:49:09;15.30;48.50
418;DHT22;49;48.530;9.200;2023-11-21T03:51:36;15.20;46.30
418;DHT22;49;48.530;9.200;2023-11-21T03:54:03;15.30;44.90
418;DHT22;49;48.530;9.200;2023-11-21T03:56:30;15.50;45.70
418;DHT22;49;48.530;9.200;2023-11-21T03:58:57;15.50;45.70
418;DHT22;49;48.530;9.200;2023-11-21T04:01:24;15.70;48.00
418;DHT22;49;48.530;9.200;2023-11-21T04:03:51;15.40;40.30
418;DHT22;49;48.530;9.200;2023-11-21T04:06:20;15.50;44.50
418;DHT22;49;48.530;9.200;2023-11-21T04:08:47;15.40;46.00
418;DHT22;49;48.530;9.200;2023-11-21T04:11:13;15.40;45.10
418;DHT22;49;48.530;9.200;2023-11-21T04:13:41;15.30;44.20
418;DHT22;49;48.530;9.200;2023-11-21T04:16:09;15.40;46.90
418;DHT22;49;48.530;9.200;2023-11-21T04:18:36;15.50;47.50
418;DHT22;49;48.530;9.200;2023-11-21T04:21:04;15.50;41.20
418;DHT22;49;48.530;9.200;2023-11-21T04:23:33;15.40;44.40
418;DHT22;49;48.530;9.200;2023-11-21T04:26:00;15.40;47.70
418;DHT22;49;48.530;9.200;2023-11-21T04:28:28;15.50;48.40
418;DHT22;49;48.530;9.200;2023-11-21T04:30:56;15.40;42.30
418;DHT22;49;48.530;9.200;2023-11-21T04:33:23;15.20;40.10
418;DHT22;49;48.530;9.200;2023-11-21T04:35:51;15.20;44.00
418;DHT22;49;48.530;9.200;2023-11-21T04:38:18;15.30;44.50
418;DHT22;49;48.530;9.200;2023-11-21T04:40:46;15.30;48.60
418;DHT22;49;48.530;9.200;2023-11-21T04:43:13;15.50;49.70
418;DHT22;49;48.530;9.200;2023-11-21T04:45:40;15.60;48.20
418;DHT22;49;48.530;9.200;2023-11-21T04:48:07;15.70;48.60
418;DHT22;49;48.530;9.200;2023-11-21T04:50:35;15.90;49.10
418;DHT22;49;48.530;9.200;2023-11-21T04:53:02;15.90;46.20
418;DHT22;49;48.530;9.200;2023-11-21T04:55:29;15.90;42.80
418;DHT22;49;48.530;9.200;2023-11-21T04:57:57;16.10;49.00
418;DHT22;49;48.530;9.200;2023-11-21T05:00:24;16.20;45.80
418;DHT22;49;48.530;9.200;2023-11-21T05:02:51;16.20;43.50
418;DHT22;49;48.530;9.200;2023-11-21T05:05:18;15.90;41.00
418;DHT22;49;48.530;9.200;2023-11-21T05:07:45;15.60;43.80
418;DHT22;49;48.530;9.200;2023-11-21T05:10:12;15.60;45.60
418;DHT22;49;48.530;9.200;2023-11-21T05:12:40;15.50;44.00
418;DHT22;49;48.530;9.200;2023-11-21T05:15:13;15.50;44.60
418;DHT22;49;48.530;9.200;2023-11-21T05:17:40;15.30;38.90
418;DHT22;49;48.530;9.200;2023-11-21T05:20:10;15.30;46.50
418;DHT22;49;48.530;9.200;2023-11-21T05:22:38;15.50;44.00
418;DHT22;49;48.530;9.200;2023-11-21T05:25:05;15.60;47.20
418;DHT22;49;48.530;9.200;2023-11-21T05:27:33;15.50;44.80
418;DHT22;49;48.530;9.200;2023-11-21T05:30:01;15.60;46.70
418;DHT22;49;48.530;9.200;2023-11-21T05:32:29;15.70;45.30
418;DHT22;49;48.530;9.200;2023-11-21T05:34:56;16.00;43.70
418;DHT22;49;48.530;9.200;2023-11-21T05:37:24;16.20;45.60
418;DHT22;49;48.530;9.200;2023-11-21T05:39:52;16.20;44.40
418;DHT22;49;48.530;9.200;2023-11-21T05:42:22;16.10;47.20
418;DHT22;49;48.530;9.200;2023-11-21T05:44:49;15.90;44.60
418;DHT22;49;48.530;9.200;2023-11-21T05:47:16;15.90;44.20
418;DHT22;49;48.530;9.200;2023-11-21T05:49:45;16.10;45.50
418;DHT22;49;48.530;9.200;2023-11-21T05:52:15;16.20;45.10
418;DHT22;49;48.530;9.200;2023-11-21T05:54:42;16.00;44.50
418;DHT22;49;48.530;9.200;2023-11-21T05:57:09;16.00;40.00
418;DHT22;49;48.530;9.200;2023-11-21T05:59:36;16.00;41.90
418;DHT22;49;48.530;9.200;2023-11-21T06:02:04;15.90;41.90
418;DHT22;49;48.530;9.200;2023-11-21T06:04:31;16.00;42.80
418;DHT22;49;48.530;9.200;2023-11-21T06:06:59;15.90;45.10
418;DHT22;49;48.530;9.200;2023-11-21T06:09:27;15.90;45.90
418;DHT22;49;48.530;9.200;2023-11-21T06:11:54;16.10;45.80
418;DHT22;49;48.530;9.200;2023-11-21T06:14:21;16.10;45.20
418;DHT22;49;48.530;9.200;2023-11-21T06:16:47;16.10;43.20
418;DHT22;49;48.530;9.200;2023-11-21T06:19:16;16.20;44.60
418;DHT22;49;48.530;9.200;2023-11-21T06:21:45;16.00;40.90
418;DHT22;49;48.530;9.200;2023-11-21T06:24:14;15.90;44.80
418;DHT22;49;48.530;9.200;2023-11-21T06:26:41;15.90;44.60
418;DHT22;49;48.530;9.200;2023-11-21T06:29:09;15.90;44.80
418;DHT22;49;48.530;9.200;2023-11-21T06:31:36;16.00;49.40
418;DHT22;49;48.530;9.200;2023-11-21T06:34:03;16.00;48.00
418;DHT22;49;48.530;9.200;2023-11-21T06:36:30;16.20;48.70
418;DHT22;49;48.530;9.200;2023-11-21T06:38:57;16.20;43.30
418;DHT22;49;48.530;9.200;2023-11-21T06:41:26;16.30;47.10
418;DHT22;49;48.530;9.200;2023-11-21T06:43:53;16.30;46.70
418;DHT22;49;48.530;9.200;2023-11-21T06:46:19;16.40;43.90
418;DHT22;49;48.530;9.200;2023-11-21T06:48:46;16.40;45.30
418;DHT22;49;48.530;9.200;2023-11-21T06:51:15;16.30;45.90
418;DHT22;49;48.530;9.200;2023-11-21T06:53:42;16.40;44.90
418;DHT22;49;48.530;9.200;2023-11-21T06:56:15;16.10;44.10
418;DHT22;49;48.530;9.200;2023-11-21T06:58:45;16.30;43.10
418;DHT22;49;48.530;9.200;2023-11-21T07:01:12;16.10;42.60
418;DHT22;49;48.530;9.200;2023-11-21T07:03:40;16.40;46.60
418;DHT22;49;48.530;9.200;2023-11-21T07:06:08;16.40;42.30
418;DHT22;49;48.530;9.200;2023-11-21T07:08:35;16.40;45.40
418;DHT22;49;48.530;9.200;2023-11-21T07:11:02;16.50;42.00
418;DHT22;49;48.530;9.200;2023-11-21T07:13:29;16.40;43.10
418;DHT22;49;48.530;9.200;2023-11-21T07:15:59;16.50;44.70
418;DHT22;49;48.530;9.200;2023-11-21T07:18:26;16.50;41.30
418;DHT22;49;48.530;9.200;2023-11-21T07:20:53;16.60;44.20
418;DHT22;49;48.530;9.200;2023-11-21T07:23:20;16.40;40.90
418;DHT22;49;48.530;9.200;2023-11-21T07:25:48;16.30;41.10
418;DHT22;49;48.530;9.200;2023-11-21T07:28:15;16.00;42.20
418;DHT22;49;48.530;9.200;2023-11-21T07:30:42;15.90;41.90
418;DHT22;49;48.530;9.200;2023-11-21T07:33:11;16.00;45.30
418;DHT22;49;48.530;9.200;2023-11-21T07:35:38;16.20;41.70
418;DHT22;49;48.530;9.200;2023-11-21T07:38:05;16.20;41.10
418;DHT22;49;48.530;9.200;2023-11-21T07:40:32;16.30;41.10
418;DHT22;49;48.530;9.200;2023-11-21T07:42:59;16.40;41.30
418;DHT22;49;48.530;9.200;2023-11-21T07:45:26;16.20;41.10
418;DHT22;49;48.530;9.200;2023-11-21T07:47:54;16.30;41.00
418;DHT22;49;48.530;9.200;2023-11-21T07:50:23;16.30;40.70
418;DHT22;49;48.530;9.200;2023-11-21T07:52:49;16.30;44.60
418;DHT22;49;48.530;9.200;2023-11-21T07:55:16;16.30;42.60
418;DHT22;49;48.530;9.200;2023-11-21T07:57:43;16.30;39.80
418;DHT22;49;48.530;9.200;2023-11-21T08:00:12;16.30;42.30
418;DHT22;49;48.530;9.200;2023-11-21T08:02:41;16.40;41.10
418;DHT22;49;48.530;9.200;2023-11-21T08:05:11;16.30;43.70
418;DHT22;49;48.530;9.200;2023-11-21T08:07:40;16.50;41.30
418;DHT22;49;48.530;9.200;2023-11-21T08:10:08;16.40;39.40
418;DHT22;49;48.530;9.200;2023-11-21T08:12:36;16.20;40.50
418;DHT22;49;48.530;9.200;2023-11-21T08:15:05;16.30;41.50
418;DHT22;49;48.530;9.200;2023-11-21T08:17:33;16.20;39.40
418;DHT22;49;48.530;9.200;2023-11-21T08:20:00;16.10;40.50
418;DHT22;49;48.530;9.200;2023-11-21T08:22:28;16.30;38.80
418;DHT22;49;48.530;9.200;2023-11-21T08:24:57;16.10;42.60
418;DHT22;49;48.530;9.200;2023-11-21T08:27:24;16.10;44.10
418;DHT22;49;48.530;9.200;2023-11-21T08:29:51;16.20;41.10
418;DHT22;49;48.530;9.200;2023-11-21T08:32:18;16.10;40.40
418;DHT22;49;48.530;9.200;2023-11-21T08:34:45;16.20;41.10
418;DHT22;49;48.530;9.200;2023-11-21T08:37:16;15.80;40.90
418;DHT22;49;48.530;9.200;2023-11-21T08:39:43;15.90;40.80
418;DHT22;49;48.530;9.200;2023-11-21T08:42:12;15.90;43.50
418;DHT22;49;48.530;9.200;2023-11-21T08:44:39;15.90;40.80
418;DHT22;49;48.530;9.200;2023-11-21T08:47:06;16.10;45.10
418;DHT22;49;48.530;9.200;2023-11-21T08:49:33;16.00;39.80
418;DHT22;49;48.530;9.200;2023-11-21T08:52:00;15.90;40.80
418;DHT22;49;48.530;9.200;2023-11-21T08:54:27;15.60;43.80
418;DHT22;49;48.530;9.200;2023-11-21T08:56:54;15.80;44.00
418;DHT22;49;48.530;9.200;2023-11-21T08:59:24;15.90;43.30
418;DHT22;49;48.530;9.200;2023-11-21T09:01:51;15.70;40.60
418;DHT22;49;48.530;9.200;2023-11-21T09:04:18;15.80;41.60
418;DHT22;49;48.530;9.200;2023-11-21T09:06:46;15.80;42.80
418;DHT22;49;48.530;9.200;2023-11-21T09:09:13;15.70;41.30
418;DHT22;49;48.530;9.200;2023-11-21T09:11:40;15.60;43.60
418;DHT22;49;48.530;9.200;2023-11-21T09:14:07;15.80;43.10
418;DHT22;49;48.530;9.200;2023-11-21T09:16:35;15.80;40.70
418;DHT22;49;48.530;9.200;2023-11-21T09:19:02;15.70;42.80
418;DHT22;49;48.530;9.200;2023-11-21T09:21:31;15.60;43.00
418;DHT22;49;48.530;9.200;2023-11-21T09:23:58;15.60;42.20
418;DHT22;49;48.530;9.200;2023-11-21T09:26:25;15.70;46.00
418;DHT22;49;48.530;9.200;2023-11-21T09:28:52;16.10;44.00
418;DHT22;49;48.530;9.200;2023-11-21T09:31:20;16.40;43.70
418;DHT22;49;48.530;9.200;2023-11-21T09:33:49;16.20;41.10
418;DHT22;49;48.530;9.200;2023-11-21T09:36:16;16.10;39.70
418;DHT22;49;48.530;9.200;2023-11-21T09:38:44;15.90;40.80
418;DHT22;49;48.530;9.200;2023-11-21T09:41:18;15.80;40.70
418;DHT22;49;48.530;9.200;2023-11-21T09:43:50;16.00;43.60
418;DHT22;49;48.530;9.200;2023-11-21T09:46:21;15.80;40.70
418;DHT22;49;48.530;9.200;2023-11-21T09:48:52;15.70;42.60
418;DHT22;49;48.530;9.200;2023-11-21T09:51:24;15.80;41.30
418;DHT22;49;48.530;9.200;2023-11-21T09:53:52;15.70;46.10
418;DHT22;49;48.530;9.200;2023-11-21T09:56:22;16.00;42.30
418;DHT22;49;48.530;9.200;2023-11-21T09:58:52;16.30;45.00
418;DHT22;49;48.530;9.200;2023-11-21T10:01:23;16.70;39.20
418;DHT22;49;48.530;9.200;2023-11-21T10:03:52;16.90;37.50
418;DHT22;49;48.530;9.200;2023-11-21T10:06:21;16.80;35.90
418;DHT22;49;48.530;9.200;2023-11-21T10:08:51;17.00;36.30
418;DHT22;49;48.530;9.200;2023-11-21T10:11:20;17.00;39.70
418;DHT22;49;48.530;9.200;2023-11-21T10:13:55;17.20;34.60
418;DHT22;49;48.530;9.200;2023-11-21T10:16:26;17.10;35.40
418;DHT22;49;48.530;9.200;2023-11-21T10:18:55;16.70;35.80
418;DHT22;49;48.530;9.200;2023-11-21T10:21:22;16.60;39.70
418;DHT22;49;48.530;9.200;2023-11-21T10:23:50;16.70;39.80
418;DHT22;49;48.530;9.200;2023-11-21T10:26:20;16.80;39.50
418;DHT22;49;48.530;9.200;2023-11-21T10:28:56;16.90;39.20
418;DHT22;49;48.530;9.200;2023-11-21T10:31:27;16.70;37.10
418;DHT22;49;48.530;9.200;2023-11-21T10:34:12;16.60;38.80
418;DHT22;49;48.530;9.200;2023-11-21T10:36:40;16.60;40.90
418;DHT22;49;48.530;9.200;2023-11-21T10:39:08;16.60;41.40
418;DHT22;49;48.530;9.200;2023-11-21T10:41:36;16.60;38.70
418;DHT22;49;48.530;9.200;2023-11-21T10:44:05;16.80;36.60
418;DHT22;49;48.530;9.200;2023-11-21T10:46:34;16.70;40.60
418;DHT22;49;48.530;9.200;2023-11-21T10:49:04;16.50;40.50
418;DHT22;49;48.530;9.200;2023-11-21T10:51:32;16.20;39.70
418;DHT22;49;48.530;9.200;2023-11-21T10:53:59;16.00;41.60
418;DHT22;49;48.530;9.200;2023-11-21T10:56:27;15.80;43.40
418;DHT22;49;48.530;9.200;2023-11-21T10:58:56;15.90;42.30
418;DHT22;49;48.530;9.200;2023-11-21T11:01:26;15.90;42.00
418;DHT22;49;48.530;9.200;2023-11-21T11:03:55;15.90;46.10
418;DHT22;49;48.530;9.200;2023-11-21T11:06:26;16.10;41.30
418;DHT22;49;48.530;9.200;2023-11-21T11:08:54;15.60;43.80
418;DHT22;49;48.530;9.200;2023-11-21T11:11:22;15.70;44.50
418;DHT22;49;48.530;9.200;2023-11-21T11:13:53;15.90;46.00
418;DHT22;49;48.530;9.200;2023-11-21T11:16:28;16.20;45.70
418;DHT22;49;48.530;9.200;2023-11-21T11:19:03;16.20;44.00
418;DHT22;49;48.530;9.200;2023-11-21T11:21:43;16.40;41.80
418;DHT22;49;48.530;9.200;2023-11-21T11:24:44;16.30;45.90
418;DHT22;49;48.530;9.200;2023-11-21T11:27:25;16.30;42.90
418;DHT22;49;48.530;9.200;2023-11-21T11:30:07;16.10;44.70
418;DHT22;49;48.530;9.200;2023-11-21T11:32:47;16.30;42.50
418;DHT22;49;48.530;9.200;2023-11-21T11:35:24;16.30;43.80
418;DHT22;49;48.530;9.200;2023-11-21T11:37:54;16.40;42.50
418;DHT22;49;48.530;9.200;2023-11-21T11:40:22;16.20;44.50
418;DHT22;49;48.530;9.200;2023-11-21T11:42:56;15.90;47.20
418;DHT22;49;48.530;9.200;2023-11-21T11:45:32;15.80;46.90
418;DHT22;49;48.530;9.200;2023-11-21T11:48:00;15.70;48.60
418;DHT22;49;48.530;9.200;2023-11-21T11:50:27;15.50;50.60
418;DHT22;49;48.530;9.200;2023-11-21T11:53:11;15.70;51.80
418;DHT22;49;48.530;9.200;2023-11-21T11:55:38;15.50;49.70
418;DHT22;49;48.530;9.200;2023-11-21T11:58:06;15.30;51.50
418;DHT22;49;48.530;9.200;2023-11-21T12:00:34;15.20;52.90
418;DHT22;49;48.530;9.200;2023-11-21T12:03:05;15.30;52.90
418;DHT22;49;48.530;9.200;2023-11-21T12:05:34;15.60;52.40
418;DHT22;49;48.530;9.200;2023-11-21T12:08:06;15.60;52.00
418;DHT22;49;48.530;9.200;2023-11-21T12:10:35;15.80;50.20
418;DHT22;49;48.530;9.200;2023-11-21T12:13:04;15.90;49.20
418;DHT22;49;48.530;9.200;2023-11-21T12:15:33;16.20;48.60
418;DHT22;49;48.530;9.200;2023-11-21T12:18:01;16.10;48.30
418;DHT22;49;48.530;9.200;2023-11-21T12:20:28;16.00;48.20
418;DHT22;49;48.530;9.200;2023-11-21T12:22:56;15.80;49.50
418;DHT22;49;48.530;9.200;2023-11-21T12:25:27;15.70;50.20
418;DHT22;49;48.530;9.200;2023-11-21T12:27:56;15.90;49.00
418;DHT22;49;48.530;9.200;2023-11-21T12:30:24;15.50;51.00
418;DHT22;49;48.530;9.200;2023-11-21T12:32:54;15.50;52.50
418;DHT22;49;48.530;9.200;2023-11-21T12:35:23;15.30;52.80
418;DHT22;49;48.530;9.200;2023-11-21T12:37:52;15.20;54.30
418;DHT22;49;48.530;9.200;2023-11-21T12:40:19;15.20;54.20
418;DHT22;49;48.530;9.200;2023-11-21T12:42:52;15.30;54.40
418;DHT22;49;48.530;9.200;2023-11-21T12:45:20;15.40;51.50
418;DHT22;49;48.530;9.200;2023-11-21T12:47:49;15.40;52.00
418;DHT22;49;48.530;9.200;2023-11-21T12:50:19;15.50;49.90
418;DHT22;49;48.530;9.200;2023-11-21T12:52:49;15.20;53.80
418;DHT22;49;48.530;9.200;2023-11-21T12:55:17;15.40;53.10
418;DHT22;49;48.530;9.200;2023-11-21T12:57:50;15.70;52.70
418;DHT22;49;48.530;9.200;2023-11-21T13:00:20;15.70;51.60
418;DHT22;49;48.530;9.200;2023-11-21T13:02:56;16.00;50.60
418;DHT22;49;48.530;9.200;2023-11-21T13:05:25;16.30;50.20
418;DHT22;49;48.530;9.200;2023-11-21T13:07:51;16.50;47.50
418;DHT22;49;48.530;9.200;2023-11-21T13:10:21;16.60;46.50
418;DHT22;49;48.530;9.200;2023-11-21T13:12:52;16.80;47.10
418;DHT22;49;48.530;9.200;2023-11-21T13:15:20;17.00;44.90
418;DHT22;49;48.530;9.200;2023-11-21T13:17:47;17.00;44.00
418;DHT22;49;48.530;9.200;2023-11-21T13:20:16;17.10;44.50
418;DHT22;49;48.530;9.200;2023-11-21T13:22:49;17.40;42.30
418;DHT22;49;48.530;9.200;2023-11-21T13:25:20;17.40;41.30
418;DHT22;49;48.530;9.200;2023-11-21T13:27:48;17.20;39.70
418;DHT22;49;48.530;9.200;2023-11-21T13:30:17;17.00;41.80
418;DHT22;49;48.530;9.200;2023-11-21T13:32:49;17.20;41.50
418;DHT22;49;48.530;9.200;2023-11-21T13:35:17;17.20;42.00
418;DHT22;49;48.530;9.200;2023-11-21T13:37:50;17.20;42.00
418;DHT22;49;48.530;9.200;2023-11-21T13:40:21;17.10;40.40
418;DHT22;49;48.530;9.200;2023-11-21T13:42:51;17.20;42.00
418;DHT22;49;48.530;9.200;2023-11-21T13:45:21;17.10;39.60
418;DHT22;49;48.530;9.200;2023-11-21T13:47:51;16.70;41.50
418;DHT22;49;48.530;9.200;2023-11-21T13:50:23;16.80;43.60
418;DHT22;49;48.530;9.200;2023-11-21T13:52:54;16.80;44.00
418;DHT22;49;48.530;9.200;2023-11-21T13:55:22;16.70;42.50
418;DHT22;49;48.530;9.200;2023-11-21T13:57:51;16.50;42.90
418;DHT22;49;48.530;9.200;2023-11-21T14:00:21;16.60;43.80
418;DHT22;49;48.530;9.200;2023-11-21T14:03:08;16.70;42.10
418;DHT22;49;48.530;9.200;2023-11-21T14:05:43;16.70;42.00
418;DHT22;49;48.530;9.200;2023-11-21T14:08:12;16.90;42.60
418;DHT22;49;48.530;9.200;2023-11-21T14:10:42;16.90;42.20
418;DHT22;49;48.530;9.200;2023-11-21T14:13:15;16.90;40.80
418;DHT22;49;48.530;9.200;2023-11-21T14:15:45;16.80;40.40
418;DHT22;49;48.530;9.200;2023-11-21T14:18:16;16.90;41.70
418;DHT22;49;48.530;9.200;2023-11-21T14:20:53;16.90;41.70
418;DHT22;49;48.530;9.200;2023-11-21T14:23:20;17.00;41.80
418;DHT22;49;48.530;9.200;2023-11-21T14:25:51;17.00;41.80
418;DHT22;49;48.530;9.200;2023-11-21T14:28:18;17.10;42.80
418;DHT22;49;48.530;9.200;2023-11-21T14:30:47;17.10;42.40
418;DHT22;49;48.530;9.200;2023-11-21T14:33:14;17.20;42.00
418;DHT22;49;48.530;9.200;2023-11-21T14:35:42;17.10;42.30
418;DHT22;49;48.530;9.200;2023-11-21T14:38:10;17.00;42.00
418;DHT22;49;48.530;9.200;2023-11-21T14:40:37;16.90;43.80
418;DHT22;49;48.530;9.200;2023-11-21T14:43:04;17.10;43.50
418;DHT22;49;48.530;9.200;2023-11-21T14:45:31;17.20;42.50
418;DHT22;49;48.530;9.200;2023-11-21T14:48:01;17.20;43.10
418;DHT22;49;48.530;9.200;2023-11-21T14:50:40;17.10;41.90
418;DHT22;49;48.530;9.200;2023-11-21T14:53:42;17.00;41.80
418;DHT22;49;48.530;9.200;2023-11-21T14:56:11;16.80;41.60
418;DHT22;49;48.530;9.200;2023-11-21T14:58:47;16.80;42.80
418;DHT22;49;48.530;9.200;2023-11-21T15:01:13;16.80;41.60
418;DHT22;49;48.530;9.200;2023-11-21T15:03:51;16.70;39.70
418;DHT22;49;48.530;9.200;2023-11-21T15:06:16;16.60;42.50
418;DHT22;49;48.530;9.200;2023-11-21T15:08:52;16.20;43.10
418;DHT22;49;48.530;9.200;2023-11-21T15:11:23;16.10;47.10
418;DHT22;49;48.530;9.200;2023-11-21T15:13:56;16.10;47.60
418;DHT22;49;48.530;9.200;2023-11-21T15:16:23;16.10;44.80
418;DHT22;49;48.530;9.200;2023-11-21T15:18:52;15.20;48.50
418;DHT22;49;48.530;9.200;2023-11-21T15:21:20;14.30;56.90
418;DHT22;49;48.530;9.200;2023-11-21T15:23:49;14.00;63.40
418;DHT22;49;48.530;9.200;2023-11-21T15:26:16;13.80;67.90
418;DHT22;49;48.530;9.200;2023-11-21T15:28:43;14.00;68.00
418;DHT22;49;48.530;9.200;2023-11-21T15:31:10;13.80;71.40
418;DHT22;49;48.530;9.200;2023-11-21T15:33:37;13.70;71.70
418;DHT22;49;48.530;9.200;2023-11-21T15:36:06;13.50;82.40
418;DHT22;49;48.530;9.200;2023-11-21T15:38:35;13.70;89.60
418;DHT22;49;48.530;9.200;2023-11-21T15:41:02;14.00;81.10
418;DHT22;49;48.530;9.200;2023-11-21T15:43:30;14.00;79.50
418;DHT22;49;48.530;9.200;2023-11-21T15:45:57;14.30;78.50
418;DHT22;49;48.530;9.200;2023-11-21T15:48:27;14.80;77.10
418;DHT22;49;48.530;9.200;2023-11-21T15:50:56;14.70;63.80
418;DHT22;49;48.530;9.200;2023-11-21T15:53:24;14.60;69.30
418;DHT22;49;48.530;9.200;2023-11-21T15:55:51;14.20;70.70
418;DHT22;49;48.530;9.200;2023-11-21T15:58:19;14.30;76.00
418;DHT22;49;48.530;9.200;2023-11-21T16:00:45;14.30;75.80
418;DHT22;49;48.530;9.200;2023-11-21T16:03:12;14.30;73.90
418;DHT22;49;48.530;9.200;2023-11-21T16:05:40;14.00;74.10
418;DHT22;49;48.530;9.200;2023-11-21T16:08:07;13.80;82.80
418;DHT22;49;48.530;9.200;2023-11-21T16:10:36;13.70;82.40
418;DHT22;49;48.530;9.200;2023-11-21T16:13:03;13.40;91.80
418;DHT22;49;48.530;9.200;2023-11-21T16:15:30;13.30;96.70
418;DHT22;49;48.530;9.200;2023-11-21T16:17:59;13.40;99.50
418;DHT22;49;48.530;9.200;2023-11-21T16:20:26;13.50;99.90
418;DHT22;49;48.530;9.200;2023-11-21T16:22:53;13.50;99.90
418;DHT22;49;48.530;9.200;2023-11-21T16:25:20;13.40;99.90
418;DHT22;49;48.530;9.200;2023-11-21T16:27:48;13.30;99.90
418;DHT22;49;48.530;9.200;2023-11-21T16:30:15;13.40;99.90
418;DHT22;49;48.530;9.200;2023-11-21T16:32:49;13.40;99.90
418;DHT22;49;48.530;9.200;2023-11-21T16:35:16;13.50;99.90
418;DHT22;49;48.530;9.200;2023-11-21T16:37:43;13.40;99.90
418;DHT22;49;48.530;9.200;2023-11-21T16:40:13;13.10;99.90
418;DHT22;49;48.530;9.200;2023-11-21T16:42:40;12.90;99.90
418;DHT22;49;48.530;9.200;2023-11-21T16:45:09;13.10;99.90
418;DHT22;49;48.530;9.200;2023-11-21T16:47:36;13.30;99.90
418;DHT22;49;48.530;9.200;2023-11-21T16:50:06;13.40;99.90
418;DHT22;49;48.530;9.200;2023-11-21T16:52:36;13.20;99.90
418;DHT22;49;48.530;9.200;2023-11-21T16:55:04;13.10;99.90
418;DHT22;49;48.530;9.200;2023-11-21T16:57:31;13.00;99.90
418;DHT22;49;48.530;9.200;2023-11-21T17:00:02;12.90;99.90
418;DHT22;49;48.530;9.200;2023-11-21T17:02:34;13.20;99.90